createdAt,value
2018-06-24T00:01:33.706Z,11.90
2018-06-24T00:04:03.742Z,11.80
2018-06-24T00:06:33.015Z,11.80
2018-06-24T00:09:02.355Z,11.70
2018-06-24T00:11:31.667Z,11.70
2018-06-24T00:14:00.968Z,11.70
2018-06-24T00:16:30.328Z,11.60
2018-06-24T00:19:00.498Z,11.60
2018-06-24T00:21:29.772Z,11.60
2018-06-24T00:23:59.594Z,11.50
2018-06-24T00:26:28.906Z,11.60
2018-06-24T00:28:58.200Z,11.50
2018-06-24T00:31:27.473Z,11.50
2018-06-24T00:33:57.726Z,11.50
2018-06-24T00:36:29.241Z,11.50
2018-06-24T00:38:58.533Z,11.50
2018-06-24T00:41:27.890Z,11.60
2018-06-24T00:43:57.292Z,11.60
2018-06-24T00:46:26.548Z,11.70
2018-06-24T00:48:55.875Z,11.60
2018-06-24T00:51:25.180Z,11.70
2018-06-24T00:53:54.466Z,11.60
2018-06-24T00:56:24.181Z,11.70
2018-06-24T00:58:53.487Z,11.70
2018-06-24T01:01:22.809Z,11.80
2018-06-24T01:03:52.064Z,11.80
2018-06-24T01:06:21.365Z,11.80
2018-06-24T01:08:50.683Z,11.70
2018-06-24T01:11:20.219Z,11.60
2018-06-24T01:13:49.501Z,11.50
2018-06-24T01:16:19.213Z,11.50
2018-06-24T01:18:49.066Z,11.40
2018-06-24T01:21:18.749Z,11.40
2018-06-24T01:23:48.029Z,11.40
2018-06-24T01:26:17.487Z,11.40
2018-06-24T01:28:46.743Z,11.40
2018-06-24T01:31:16.080Z,11.40
2018-06-24T01:33:45.341Z,11.40
2018-06-24T01:36:14.729Z,11.40
2018-06-24T01:38:44.493Z,11.40
2018-06-24T01:41:13.830Z,11.40
2018-06-24T01:43:43.785Z,11.50
2018-06-24T01:46:13.702Z,11.50
2018-06-24T01:48:43.083Z,11.50
2018-06-24T01:51:12.378Z,11.60
2018-06-24T01:53:41.663Z,11.70
2018-06-24T01:56:10.946Z,11.60
2018-06-24T01:58:40.214Z,11.50
2018-06-24T02:01:09.660Z,11.40
2018-06-24T02:03:39.557Z,11.30
2018-06-24T02:06:08.837Z,11.40
2018-06-24T02:08:38.158Z,11.30
2018-06-24T02:11:07.583Z,11.30
2018-06-24T02:13:36.781Z,11.30
2018-06-24T02:16:06.187Z,11.30
2018-06-24T02:18:35.617Z,11.30
2018-06-24T02:21:04.922Z,11.20
2018-06-24T02:23:34.193Z,11.20
2018-06-24T02:26:03.466Z,11.20
2018-06-24T02:28:32.788Z,11.20
2018-06-24T02:31:02.188Z,11.20
2018-06-24T02:33:31.427Z,11.30
2018-06-24T02:36:01.110Z,11.30
2018-06-24T02:38:30.459Z,11.30
2018-06-24T02:40:59.708Z,11.30
2018-06-24T02:43:29.121Z,11.30
2018-06-24T02:45:58.552Z,11.20
2018-06-24T02:48:28.539Z,11.20
2018-06-24T02:50:58.314Z,11.20
2018-06-24T02:53:27.628Z,11.20
2018-06-24T02:55:56.867Z,11.20
2018-06-24T02:58:26.112Z,11.20
2018-06-24T03:00:57.294Z,11.20
2018-06-24T03:03:26.788Z,11.20
2018-06-24T03:05:56.619Z,11.20
2018-06-24T03:08:26.576Z,11.20
2018-06-24T03:10:55.836Z,11.20
2018-06-24T03:13:25.182Z,11.20
2018-06-24T03:15:54.421Z,11.20
2018-06-24T03:18:23.716Z,11.20
2018-06-24T03:20:53.062Z,11.20
2018-06-24T03:23:22.484Z,11.40
2018-06-24T03:25:51.842Z,11.30
2018-06-24T03:28:21.086Z,11.40
2018-06-24T03:30:50.441Z,11.50
2018-06-24T03:33:19.696Z,11.60
2018-06-24T03:35:49.003Z,11.60
2018-06-24T03:38:18.505Z,11.60
2018-06-24T03:40:47.875Z,11.60
2018-06-24T03:43:17.111Z,11.50
2018-06-24T03:45:46.412Z,11.50
2018-06-24T03:48:15.649Z,11.60
2018-06-24T03:50:44.966Z,11.60
2018-06-24T03:53:14.304Z,11.60
2018-06-24T03:55:43.646Z,11.60
2018-06-24T03:58:12.974Z,11.50
2018-06-24T04:00:42.315Z,11.50
2018-06-24T04:03:11.720Z,11.50
2018-06-24T04:05:41.019Z,11.50
2018-06-24T04:08:10.298Z,11.60
2018-06-24T04:10:39.569Z,11.70
2018-06-24T04:13:08.904Z,11.70
2018-06-24T04:15:38.882Z,11.80
2018-06-24T04:18:08.865Z,12.10
2018-06-24T04:20:38.117Z,12.30
2018-06-24T04:23:08.000Z,12.30
2018-06-24T04:25:38.059Z,12.40
2018-06-24T04:28:08.126Z,12.40
2018-06-24T04:30:37.361Z,12.50
2018-06-24T04:33:06.703Z,12.40
2018-06-24T04:35:36.581Z,12.50
2018-06-24T04:38:07.036Z,12.50
2018-06-24T04:40:36.368Z,12.60
2018-06-24T04:43:05.693Z,12.60
2018-06-24T04:45:36.085Z,12.50
2018-06-24T04:48:06.648Z,12.70
2018-06-24T04:50:35.855Z,12.80
2018-06-24T04:53:05.121Z,12.90
2018-06-24T04:55:34.441Z,13.00
2018-06-24T04:58:04.475Z,13.20
2018-06-24T05:00:33.971Z,13.10
2018-06-24T05:03:03.189Z,13.20
2018-06-24T05:05:32.470Z,13.20
2018-06-24T05:08:01.750Z,13.20
2018-06-24T05:13:00.709Z,12.80
2018-06-24T05:15:30.016Z,12.70
2018-06-24T05:17:59.433Z,12.70
2018-06-24T05:20:28.817Z,12.70
2018-06-24T05:22:58.134Z,12.80
2018-06-24T05:25:27.584Z,13.00
2018-06-24T05:27:56.921Z,13.00
2018-06-24T05:30:26.203Z,13.00
2018-06-24T05:32:55.736Z,12.90
2018-06-24T05:35:24.960Z,12.80
2018-06-24T05:37:54.315Z,12.80
2018-06-24T05:40:23.572Z,12.80
2018-06-24T05:42:53.046Z,12.80
2018-06-24T05:45:22.272Z,12.90
2018-06-24T05:47:51.614Z,13.00
2018-06-24T05:50:21.381Z,13.00
2018-06-24T05:52:51.281Z,13.20
2018-06-24T05:57:49.509Z,13.60
2018-06-24T06:00:18.794Z,13.60
2018-06-24T06:02:48.950Z,13.70
2018-06-24T06:05:18.204Z,13.70
2018-06-24T06:07:47.529Z,13.80
2018-06-24T06:10:16.827Z,13.80
2018-06-24T06:12:46.308Z,13.80
2018-06-24T06:15:15.915Z,14.00
2018-06-24T06:17:45.115Z,14.20
2018-06-24T06:20:14.523Z,14.30
2018-06-24T06:22:43.900Z,14.30
2018-06-24T06:25:13.247Z,14.00
2018-06-24T06:27:42.497Z,13.90
2018-06-24T06:30:11.821Z,14.10
2018-06-24T06:32:41.155Z,14.30
2018-06-24T06:35:10.381Z,14.40
2018-06-24T06:37:40.684Z,14.50
2018-06-24T06:40:10.077Z,14.40
2018-06-24T06:42:39.454Z,14.30
2018-06-24T06:45:09.634Z,14.30
2018-06-24T06:47:39.368Z,14.50
2018-06-24T06:50:08.696Z,14.60
2018-06-24T06:52:38.162Z,14.60
2018-06-24T06:55:08.032Z,14.80
2018-06-24T06:57:37.308Z,14.70
2018-06-24T07:00:07.376Z,14.60
2018-06-24T07:02:36.662Z,14.30
2018-06-24T07:05:06.288Z,14.30
2018-06-24T07:07:35.628Z,14.50
2018-06-24T07:10:05.237Z,14.50
2018-06-24T07:12:34.520Z,14.40
2018-06-24T07:15:04.151Z,14.40
2018-06-24T07:17:33.858Z,14.50
2018-06-24T07:20:03.439Z,14.40
2018-06-24T07:22:32.752Z,14.20
2018-06-24T07:25:02.116Z,14.20
2018-06-24T07:27:31.442Z,14.20
2018-06-24T07:30:01.352Z,14.50
2018-06-24T07:32:30.723Z,14.70
2018-06-24T07:35:00.131Z,14.80
2018-06-24T07:37:29.528Z,14.90
2018-06-24T07:39:58.936Z,14.90
2018-06-24T07:42:28.335Z,14.90
2018-06-24T07:44:57.859Z,15.00
2018-06-24T07:47:27.334Z,14.90
2018-06-24T07:49:56.657Z,14.90
2018-06-24T07:52:26.041Z,15.00
2018-06-24T07:54:55.431Z,14.90
2018-06-24T07:57:24.812Z,15.20
2018-06-24T07:59:54.172Z,15.30
2018-06-24T08:02:23.525Z,15.70
2018-06-24T08:04:52.783Z,16.00
2018-06-24T08:07:22.443Z,15.80
2018-06-24T08:09:52.411Z,15.60
2018-06-24T08:12:21.736Z,15.80
2018-06-24T08:14:52.963Z,16.00
2018-06-24T08:17:22.278Z,16.10
2018-06-24T08:19:51.634Z,15.90
2018-06-24T08:22:20.925Z,15.80
2018-06-24T08:24:50.350Z,15.60
2018-06-24T08:27:19.671Z,15.50
2018-06-24T08:29:49.481Z,15.30
2018-06-24T08:32:18.909Z,15.40
2018-06-24T08:34:48.741Z,15.50
2018-06-24T08:37:18.052Z,15.80
2018-06-24T08:39:48.969Z,15.80
2018-06-24T08:42:18.372Z,16.20
2018-06-24T08:44:47.927Z,16.10
2018-06-24T08:47:17.336Z,16.40
2018-06-24T08:49:47.248Z,16.60
2018-06-24T08:52:16.762Z,17.00
2018-06-24T08:54:46.934Z,17.30
2018-06-24T08:57:16.533Z,17.00
2018-06-24T08:59:47.375Z,16.70
2018-06-24T09:02:16.779Z,16.80
2018-06-24T09:04:46.186Z,16.60
2018-06-24T09:07:15.831Z,16.20
2018-06-24T09:09:45.920Z,16.30
2018-06-24T09:12:15.783Z,16.50
2018-06-24T09:14:46.064Z,16.30
2018-06-24T09:17:16.055Z,16.20
2018-06-24T09:19:46.344Z,16.00
2018-06-24T09:22:16.736Z,15.90
2018-06-24T09:24:46.232Z,15.90
2018-06-24T09:27:16.180Z,16.00
2018-06-24T09:29:45.569Z,16.00
2018-06-24T09:32:15.316Z,16.10
2018-06-24T09:34:44.676Z,16.20
2018-06-24T09:39:43.374Z,16.40
2018-06-24T09:42:13.470Z,16.40
2018-06-24T09:44:42.843Z,16.60
2018-06-24T09:47:14.043Z,16.90
2018-06-24T09:49:43.655Z,17.00
2018-06-24T09:52:13.097Z,16.60
2018-06-24T09:54:42.691Z,16.60
2018-06-24T09:57:13.044Z,16.20
2018-06-24T09:59:44.648Z,16.40
2018-06-24T10:02:14.320Z,16.60
2018-06-24T10:04:43.820Z,16.60
2018-06-24T10:07:13.261Z,16.60
2018-06-24T10:09:42.866Z,16.90
2018-06-24T10:12:12.234Z,17.00
2018-06-24T10:14:41.708Z,17.00
2018-06-24T10:17:12.487Z,17.40
2018-06-24T10:19:41.933Z,17.70
2018-06-24T10:22:11.488Z,17.90
2018-06-24T10:24:41.697Z,17.80
2018-06-24T10:27:11.363Z,18.10
2018-06-24T10:29:41.609Z,18.00
2018-06-24T10:32:11.115Z,17.60
2018-06-24T10:34:41.209Z,17.70
2018-06-24T10:37:12.253Z,17.90
2018-06-24T10:39:41.589Z,18.10
2018-06-24T10:42:11.192Z,18.10
2018-06-24T10:44:41.071Z,17.90
2018-06-24T10:47:10.548Z,17.80
2018-06-24T10:49:40.640Z,17.80
2018-06-24T10:52:10.047Z,18.30
2018-06-24T10:54:39.543Z,18.30
2018-06-24T10:57:09.573Z,18.40
2018-06-24T10:59:40.982Z,18.40
2018-06-24T11:02:10.499Z,18.30
2018-06-24T11:04:39.819Z,18.20
2018-06-24T11:07:10.095Z,18.10
2018-06-24T11:09:39.635Z,18.30
2018-06-24T11:12:08.977Z,18.30
2018-06-24T11:14:38.337Z,17.90
2018-06-24T11:17:07.976Z,17.90
2018-06-24T11:19:37.469Z,17.70
2018-06-24T11:22:07.532Z,17.40
2018-06-24T11:24:37.500Z,17.50
2018-06-24T11:27:07.654Z,17.50
2018-06-24T11:29:37.165Z,17.90
2018-06-24T11:32:06.577Z,17.80
2018-06-24T11:34:35.863Z,17.80
2018-06-24T11:37:05.545Z,17.50
2018-06-24T11:39:34.950Z,17.40
2018-06-24T11:42:05.784Z,17.60
2018-06-24T11:44:35.435Z,17.30
2018-06-24T11:47:05.065Z,17.40
2018-06-24T11:49:35.118Z,17.20
2018-06-24T11:52:05.432Z,17.30
2018-06-24T11:54:34.749Z,17.00
2018-06-24T11:57:04.122Z,17.00
2018-06-24T11:59:33.575Z,17.20
2018-06-24T12:02:03.026Z,17.40
2018-06-24T12:04:32.841Z,17.50
2018-06-24T12:07:02.221Z,17.60
2018-06-24T12:09:31.615Z,17.20
2018-06-24T12:12:01.662Z,16.90
2018-06-24T12:14:30.994Z,17.00
2018-06-24T12:17:01.635Z,16.70
2018-06-24T12:19:31.296Z,16.70
2018-06-24T12:22:00.669Z,16.80
2018-06-24T12:24:30.191Z,16.80
2018-06-24T12:26:59.643Z,16.70
2018-06-24T12:29:29.059Z,16.70
2018-06-24T12:31:58.487Z,16.60
2018-06-24T12:34:28.640Z,16.70
2018-06-24T12:36:58.131Z,16.40
2018-06-24T12:39:28.094Z,16.50
2018-06-24T12:41:57.552Z,16.60
2018-06-24T12:44:27.077Z,16.70
2018-06-24T12:46:57.104Z,16.80
2018-06-24T12:56:15.803Z,16.70
2018-06-24T12:58:46.217Z,16.80
2018-06-24T13:01:16.177Z,16.90
2018-06-24T13:03:45.676Z,16.90
2018-06-24T13:06:15.616Z,16.90
2018-06-24T13:08:45.991Z,17.20
2018-06-24T13:11:16.631Z,17.30
2018-06-24T13:13:46.852Z,17.50
2018-06-24T13:16:16.569Z,17.40
2018-06-24T13:18:48.005Z,17.40
2018-06-24T13:21:17.703Z,17.60
2018-06-24T13:23:47.029Z,17.30
2018-06-24T13:26:17.298Z,16.90
2018-06-24T13:28:49.193Z,16.90
2018-06-24T13:31:19.141Z,17.10
2018-06-24T13:33:49.534Z,16.80
2018-06-24T13:36:19.324Z,16.50
2018-06-24T13:38:49.071Z,16.60
2018-06-24T13:41:21.329Z,16.80
2018-06-24T13:43:51.166Z,16.80
2018-06-24T13:46:22.010Z,16.70
2018-06-24T13:48:53.465Z,16.70
2018-06-24T13:51:24.387Z,16.70
2018-06-24T13:53:53.708Z,16.80
2018-06-24T13:56:23.721Z,16.90
2018-06-24T13:58:53.174Z,17.10
2018-06-24T14:01:22.940Z,16.90
2018-06-24T14:03:53.748Z,17.00
2018-06-24T14:06:23.200Z,16.90
2018-06-24T14:08:52.947Z,17.00
2018-06-24T14:11:22.784Z,17.10
2018-06-24T14:13:52.819Z,17.20
2018-06-24T14:16:22.611Z,17.10
2018-06-24T14:18:53.361Z,17.10
2018-06-24T14:21:24.308Z,16.90
2018-06-24T14:23:54.746Z,16.80
2018-06-24T14:26:26.400Z,16.50
2018-06-24T14:28:57.684Z,16.40
2018-06-24T14:31:28.915Z,16.60
2018-06-24T14:33:58.585Z,16.70
2018-06-24T14:36:29.315Z,16.50
2018-06-24T14:38:58.846Z,16.30
2018-06-24T14:41:29.293Z,16.10
2018-06-24T14:43:59.472Z,16.00
2018-06-24T14:46:29.274Z,16.00
2018-06-24T14:48:58.634Z,16.00
2018-06-24T14:51:31.150Z,16.10
2018-06-24T14:54:02.572Z,16.20
2018-06-24T14:56:32.044Z,16.20
2018-06-24T14:59:01.630Z,16.40
2018-06-24T15:01:31.942Z,16.50
2018-06-24T15:04:01.738Z,16.40
2018-06-24T15:06:31.942Z,16.50
2018-06-24T15:11:31.745Z,16.40
2018-06-24T15:14:01.682Z,16.40
2018-06-24T15:16:31.315Z,16.30
2018-06-24T15:19:01.035Z,16.30
2018-06-24T15:21:31.118Z,16.20
2018-06-24T15:24:00.491Z,16.30
2018-06-24T15:26:29.990Z,15.90
2018-06-24T15:28:59.892Z,15.90
2018-06-24T15:31:30.260Z,16.00
2018-06-24T15:33:59.952Z,16.10
2018-06-24T15:36:29.867Z,16.10
2018-06-24T15:38:59.207Z,16.00
2018-06-24T15:41:29.316Z,16.20
2018-06-24T15:44:00.147Z,16.30
2018-06-24T15:46:29.917Z,16.40
2018-06-24T15:49:00.646Z,16.40
2018-06-24T15:51:31.788Z,16.50
2018-06-24T15:54:01.570Z,16.20
2018-06-24T15:56:32.168Z,16.30
2018-06-24T15:59:01.948Z,16.20
2018-06-24T16:01:32.100Z,16.10
2018-06-24T16:04:01.495Z,16.00
2018-06-24T16:06:31.543Z,16.00
2018-06-24T16:09:01.273Z,15.90
2018-06-24T16:11:31.713Z,15.80
2018-06-24T16:14:01.246Z,15.70
2018-06-24T16:16:30.882Z,15.60
2018-06-24T16:19:00.380Z,15.40
2018-06-24T16:21:31.563Z,15.50
2018-06-24T16:24:01.118Z,15.50
2018-06-24T16:26:30.954Z,15.30
2018-06-24T16:29:01.660Z,15.30
2018-06-24T16:31:32.526Z,15.10
2018-06-24T16:34:02.259Z,14.80
2018-06-24T16:36:32.625Z,14.90
2018-06-24T16:39:03.700Z,14.70
2018-06-24T16:41:33.542Z,14.70
2018-06-24T16:44:03.249Z,14.60
2018-06-24T16:46:33.363Z,14.80
2018-06-24T16:49:03.490Z,15.00
2018-06-24T16:51:33.998Z,15.10
2018-06-24T16:54:04.177Z,15.00
2018-06-24T16:56:33.817Z,14.80
2018-06-24T16:59:04.053Z,14.80
2018-06-24T17:01:34.663Z,15.00
2018-06-24T17:04:05.240Z,15.00
2018-06-24T17:06:36.750Z,14.70
2018-06-24T17:09:13.125Z,14.50
2018-06-24T17:11:44.489Z,14.60
2018-06-24T17:14:14.583Z,14.70
2018-06-24T17:16:45.206Z,14.60
2018-06-24T17:19:14.799Z,14.60
2018-06-24T17:21:44.890Z,14.60
2018-06-24T17:24:15.519Z,14.70
2018-06-24T17:26:49.037Z,14.70
2018-06-24T17:29:18.710Z,14.80
2018-06-24T17:31:49.133Z,14.80
2018-06-24T17:34:20.539Z,14.70
2018-06-24T17:36:50.768Z,14.80
2018-06-24T17:39:22.167Z,14.90
2018-06-24T17:41:52.718Z,14.90
2018-06-24T17:44:23.020Z,15.00
2018-06-24T17:46:53.912Z,14.90
2018-06-24T17:49:23.695Z,14.90
2018-06-24T17:51:53.320Z,15.00
2018-06-24T17:54:23.199Z,14.90
2018-06-24T17:56:52.700Z,14.80
2018-06-24T17:59:23.588Z,14.90
2018-06-24T18:01:53.203Z,14.90
2018-06-24T18:04:23.419Z,14.90
2018-06-24T18:06:54.355Z,14.70
2018-06-24T18:09:25.088Z,14.70
2018-06-24T18:11:54.955Z,14.70
2018-06-24T18:14:25.590Z,14.60
2018-06-24T18:16:56.313Z,14.60
2018-06-24T18:19:27.014Z,14.60
2018-06-24T18:21:58.766Z,14.70
2018-06-24T18:24:28.857Z,14.70
2018-06-24T18:26:59.505Z,14.70
2018-06-24T18:29:30.963Z,14.70
2018-06-24T18:32:02.204Z,14.70
2018-06-24T18:34:31.994Z,14.70
2018-06-24T18:37:04.220Z,14.80
2018-06-24T18:39:34.575Z,14.80
2018-06-24T18:42:04.890Z,14.80
2018-06-24T18:44:35.307Z,14.90
2018-06-24T18:47:06.151Z,14.80
2018-06-24T18:49:36.899Z,14.80
2018-06-24T18:52:08.434Z,14.80
2018-06-24T18:54:42.064Z,14.80
2018-06-24T18:57:16.967Z,14.80
2018-06-24T18:59:49.967Z,14.70
2018-06-24T19:02:22.829Z,14.70
2018-06-24T19:04:53.156Z,14.80
2018-06-24T19:07:23.330Z,14.90
2018-06-24T19:09:54.307Z,15.00
2018-06-24T19:12:25.722Z,14.90
2018-06-24T19:14:58.038Z,14.90
2018-06-24T19:17:30.334Z,14.80
2018-06-24T19:20:04.877Z,14.80
2018-06-24T19:22:38.893Z,14.80
2018-06-24T19:25:09.277Z,14.80
2018-06-24T19:27:39.662Z,14.70
2018-06-24T19:30:14.490Z,14.80
2018-06-24T19:32:46.155Z,14.90
2018-06-24T19:35:15.928Z,14.90
2018-06-24T19:37:45.767Z,14.80
2018-06-24T19:42:50.266Z,14.90
2018-06-24T19:45:20.360Z,14.80
2018-06-24T19:47:51.253Z,14.90
2018-06-24T19:50:21.039Z,14.90
2018-06-24T19:52:51.283Z,15.00
2018-06-24T19:55:21.770Z,14.90
2018-06-24T19:57:52.557Z,14.90
2018-06-24T20:00:23.193Z,14.80
2018-06-24T20:02:53.590Z,14.80
2018-06-24T20:05:26.084Z,14.80
2018-06-24T20:07:57.059Z,14.70
2018-06-24T20:10:27.829Z,14.60
2018-06-24T20:12:57.964Z,14.60
2018-06-24T20:15:28.736Z,14.60
2018-06-24T20:17:58.938Z,14.70
2018-06-24T20:20:29.430Z,14.70
2018-06-24T20:23:02.698Z,14.70
2018-06-24T20:25:33.146Z,14.60
2018-06-24T20:28:03.576Z,14.60
2018-06-24T20:30:35.703Z,14.60
2018-06-24T20:35:35.708Z,14.60
2018-06-24T20:38:06.151Z,14.70
2018-06-24T20:40:35.958Z,14.80
2018-06-24T20:43:06.404Z,14.80
2018-06-24T20:45:36.617Z,14.80
2018-06-24T20:48:06.902Z,14.80
2018-06-24T20:50:36.759Z,14.70
2018-06-24T20:53:07.500Z,14.80
2018-06-24T20:55:37.607Z,14.70
2018-06-24T20:58:07.757Z,14.70
2018-06-24T21:00:39.344Z,14.80
2018-06-24T21:03:09.445Z,14.80
2018-06-24T21:05:39.714Z,14.90
2018-06-24T21:08:10.542Z,14.80
2018-06-24T21:10:41.362Z,14.80
2018-06-24T21:13:12.079Z,14.70
2018-06-24T21:15:42.726Z,14.80
2018-06-24T21:20:42.690Z,14.80
2018-06-24T21:23:12.611Z,14.90
2018-06-24T21:25:42.412Z,14.80
2018-06-24T21:28:14.513Z,14.90
2018-06-24T21:30:45.003Z,14.90
2018-06-24T21:33:16.197Z,14.90
2018-06-24T21:35:46.487Z,15.00
2018-06-24T21:38:16.231Z,15.00
2018-06-24T21:40:46.311Z,15.00
2018-06-24T21:43:15.832Z,15.00
2018-06-24T21:45:45.743Z,14.90
2018-06-24T21:48:15.131Z,14.80
2018-06-24T21:50:45.711Z,14.50
2018-06-24T21:53:15.692Z,14.50
2018-06-24T21:55:45.305Z,14.60
2018-06-24T21:58:14.833Z,14.60
2018-06-24T22:00:44.485Z,14.50
2018-06-24T22:03:15.074Z,14.50
2018-06-24T22:05:44.549Z,14.60
2018-06-24T22:08:14.544Z,14.60
2018-06-24T22:10:44.031Z,14.60
2018-06-24T22:13:14.096Z,14.70
2018-06-24T22:15:43.870Z,14.50
2018-06-24T22:18:13.666Z,14.50
2018-06-24T22:20:44.075Z,14.60
2018-06-24T22:23:13.646Z,14.60
2018-06-24T22:25:44.177Z,14.40
2018-06-24T22:28:13.655Z,14.40
2018-06-24T22:30:43.325Z,14.40
2018-06-24T22:33:13.700Z,14.20
2018-06-24T22:35:43.110Z,14.30
2018-06-24T22:38:13.366Z,14.20
2018-06-24T22:40:43.454Z,14.20
2018-06-24T22:43:13.039Z,14.20
2018-06-24T22:45:42.914Z,14.10
2018-06-24T22:48:13.410Z,14.10
2018-06-24T22:50:42.946Z,14.10
2018-06-24T22:53:12.721Z,14.20
2018-06-24T22:55:42.765Z,14.20
2018-06-24T22:58:12.175Z,14.20
2018-06-24T23:00:41.856Z,14.10
2018-06-24T23:03:11.508Z,14.10
2018-06-24T23:05:40.991Z,14.10
2018-06-24T23:08:10.757Z,14.20
2018-06-24T23:10:41.584Z,14.30
2018-06-24T23:13:11.148Z,14.20
2018-06-24T23:15:41.513Z,14.30
2018-06-24T23:18:11.408Z,14.20
2018-06-24T23:20:41.335Z,14.20
2018-06-24T23:23:11.283Z,14.30
2018-06-24T23:25:41.344Z,14.10
2018-06-24T23:28:10.851Z,14.20
2018-06-24T23:30:40.256Z,14.20
2018-06-24T23:33:10.107Z,14.20
2018-06-24T23:35:39.524Z,14.20
2018-06-24T23:38:09.095Z,14.30
2018-06-24T23:40:39.828Z,14.40
2018-06-24T23:43:09.783Z,14.30
2018-06-24T23:45:39.826Z,14.30
2018-06-24T23:48:10.161Z,14.40
2018-06-24T23:50:39.709Z,14.40
2018-06-24T23:53:09.485Z,14.30
2018-06-24T23:55:39.189Z,14.30
2018-06-24T23:58:08.657Z,14.20
